sensor_id;sensor_type;location;lat;lon;timestamp;P1;durP1;ratioP1;P2;durP2;ratioP2
53391;SDS011;41667;51.922;8.850;2023-05-10T00:02:08;9.65;;;7.93;;
53391;SDS011;41667;51.922;8.850;2023-05-10T00:04:33;9.95;;;7.82;;
53391;SDS011;41667;51.922;8.850;2023-05-10T00:06:59;9.85;;;6.50;;
53391;SDS011;41667;51.922;8.850;2023-05-10T00:09:24;6.80;;;5.95;;
53391;SDS011;41667;51.922;8.850;2023-05-10T00:11:49;9.33;;;7.03;;
53391;SDS011;41667;51.922;8.850;2023-05-10T00:14:14;8.47;;;7.20;;
53391;SDS011;41667;51.922;8.850;2023-05-10T00:16:39;8.23;;;6.67;;
53391;SDS011;41667;51.922;8.850;2023-05-10T00:19:04;8.85;;;7.05;;
53391;SDS011;41667;51.922;8.850;2023-05-10T00:21:29;7.18;;;6.18;;
53391;SDS011;41667;51.922;8.850;2023-05-10T00:23:55;12.57;;;7.77;;
53391;SDS011;41667;51.922;8.850;2023-05-10T00:26:20;7.33;;;6.47;;
53391;SDS011;41667;51.922;8.850;2023-05-10T00:28:45;8.45;;;6.68;;
53391;SDS011;41667;51.922;8.850;2023-05-10T00:31:10;9.47;;;6.80;;
53391;SDS011;41667;51.922;8.850;2023-05-10T00:33:35;8.18;;;6.47;;
53391;SDS011;41667;51.922;8.850;2023-05-10T00:36:00;8.20;;;6.60;;
53391;SDS011;41667;51.922;8.850;2023-05-10T00:38:25;9.00;;;7.10;;
53391;SDS011;41667;51.922;8.850;2023-05-10T00:40:51;8.57;;;6.63;;
53391;SDS011;41667;51.922;8.850;2023-05-10T00:43:16;9.25;;;6.68;;
53391;SDS011;41667;51.922;8.850;2023-05-10T00:45:41;8.60;;;6.70;;
53391;SDS011;41667;51.922;8.850;2023-05-10T00:48:06;7.47;;;6.45;;
53391;SDS011;41667;51.922;8.850;2023-05-10T00:50:32;8.73;;;7.17;;
53391;SDS011;41667;51.922;8.850;2023-05-10T00:52:57;9.50;;;6.65;;
53391;SDS011;41667;51.922;8.850;2023-05-10T00:55:22;8.80;;;6.72;;
53391;SDS011;41667;51.922;8.850;2023-05-10T00:57:48;10.13;;;6.97;;
53391;SDS011;41667;51.922;8.850;2023-05-10T01:00:13;10.27;;;6.47;;
53391;SDS011;41667;51.922;8.850;2023-05-10T01:02:42;9.25;;;7.35;;
53391;SDS011;41667;51.922;8.850;2023-05-10T01:05:08;10.70;;;6.83;;
53391;SDS011;41667;51.922;8.850;2023-05-10T01:07:33;10.23;;;8.07;;
53391;SDS011;41667;51.922;8.850;2023-05-10T01:09:58;9.65;;;7.43;;
53391;SDS011;41667;51.922;8.850;2023-05-10T01:12:23;11.27;;;7.45;;
53391;SDS011;41667;51.922;8.850;2023-05-10T01:14:48;8.93;;;7.70;;
53391;SDS011;41667;51.922;8.850;2023-05-10T01:17:14;9.73;;;7.90;;
53391;SDS011;41667;51.922;8.850;2023-05-10T01:19:39;11.35;;;8.68;;
53391;SDS011;41667;51.922;8.850;2023-05-10T01:22:06;12.77;;;9.23;;
53391;SDS011;41667;51.922;8.850;2023-05-10T01:27:35;11.30;;;8.60;;
53391;SDS011;41667;51.922;8.850;2023-05-10T01:30:46;14.02;;;9.00;;
53391;SDS011;41667;51.922;8.850;2023-05-10T01:35:21;13.37;;;8.87;;
53391;SDS011;41667;51.922;8.850;2023-05-10T01:40:17;12.27;;;8.95;;
53391;SDS011;41667;51.922;8.850;2023-05-10T01:42:46;12.27;;;9.13;;
53391;SDS011;41667;51.922;8.850;2023-05-10T01:45:36;10.88;;;8.35;;
53391;SDS011;41667;51.922;8.850;2023-05-10T01:48:10;10.82;;;8.07;;
53391;SDS011;41667;51.922;8.850;2023-05-10T01:50:36;12.23;;;9.48;;
53391;SDS011;41667;51.922;8.850;2023-05-10T01:53:02;12.88;;;8.80;;
53391;SDS011;41667;51.922;8.850;2023-05-10T01:55:29;14.75;;;9.68;;
53391;SDS011;41667;51.922;8.850;2023-05-10T01:57:58;15.45;;;9.55;;
53391;SDS011;41667;51.922;8.850;2023-05-10T02:00:24;12.18;;;8.80;;
53391;SDS011;41667;51.922;8.850;2023-05-10T02:02:49;11.30;;;8.75;;
53391;SDS011;41667;51.922;8.850;2023-05-10T02:05:16;12.52;;;9.57;;
53391;SDS011;41667;51.922;8.850;2023-05-10T02:07:41;11.88;;;9.15;;
53391;SDS011;41667;51.922;8.850;2023-05-10T02:10:07;12.70;;;8.77;;
53391;SDS011;41667;51.922;8.850;2023-05-10T02:12:35;11.20;;;8.23;;
53391;SDS011;41667;51.922;8.850;2023-05-10T02:15:01;10.88;;;8.35;;
53391;SDS011;41667;51.922;8.850;2023-05-10T02:17:27;11.75;;;8.57;;
53391;SDS011;41667;51.922;8.850;2023-05-10T02:19:53;12.85;;;8.65;;
53391;SDS011;41667;51.922;8.850;2023-05-10T02:22:20;15.40;;;9.40;;
53391;SDS011;41667;51.922;8.850;2023-05-10T02:24:46;14.52;;;8.65;;
53391;SDS011;41667;51.922;8.850;2023-05-10T02:27:11;12.45;;;8.75;;
53391;SDS011;41667;51.922;8.850;2023-05-10T02:29:37;13.35;;;10.02;;
53391;SDS011;41667;51.922;8.850;2023-05-10T02:32:02;13.05;;;10.70;;
53391;SDS011;41667;51.922;8.850;2023-05-10T02:34:28;14.50;;;9.68;;
53391;SDS011;41667;51.922;8.850;2023-05-10T02:36:54;15.95;;;8.57;;
53391;SDS011;41667;51.922;8.850;2023-05-10T02:39:21;7.57;;;6.13;;
53391;SDS011;41667;51.922;8.850;2023-05-10T02:41:46;4.65;;;3.90;;
53391;SDS011;41667;51.922;8.850;2023-05-10T02:44:11;2.30;;;2.08;;
53391;SDS011;41667;51.922;8.850;2023-05-10T02:46:38;7.50;;;4.40;;
53391;SDS011;41667;51.922;8.850;2023-05-10T02:49:03;2.90;;;2.40;;
53391;SDS011;41667;51.922;8.850;2023-05-10T02:51:30;4.60;;;1.90;;
53391;SDS011;41667;51.922;8.850;2023-05-10T02:53:56;3.80;;;1.73;;
53391;SDS011;41667;51.922;8.850;2023-05-10T02:56:23;2.92;;;1.35;;
53391;SDS011;41667;51.922;8.850;2023-05-10T02:58:49;1.50;;;1.40;;
53391;SDS011;41667;51.922;8.850;2023-05-10T03:01:15;0.87;;;0.83;;
53391;SDS011;41667;51.922;8.850;2023-05-10T03:03:40;3.10;;;0.90;;
53391;SDS011;41667;51.922;8.850;2023-05-10T03:06:05;1.27;;;0.82;;
53391;SDS011;41667;51.922;8.850;2023-05-10T03:08:30;2.15;;;1.30;;
53391;SDS011;41667;51.922;8.850;2023-05-10T03:13:29;1.17;;;1.13;;
53391;SDS011;41667;51.922;8.850;2023-05-10T03:15:58;0.90;;;0.90;;
53391;SDS011;41667;51.922;8.850;2023-05-10T03:18:48;1.70;;;1.25;;
53391;SDS011;41667;51.922;8.850;2023-05-10T03:21:11;1.70;;;1.50;;
53391;SDS011;41667;51.922;8.850;2023-05-10T03:23:41;1.35;;;1.10;;
53391;SDS011;41667;51.922;8.850;2023-05-10T03:26:07;3.83;;;2.15;;
53391;SDS011;41667;51.922;8.850;2023-05-10T03:28:33;2.15;;;2.03;;
53391;SDS011;41667;51.922;8.850;2023-05-10T03:30:59;2.92;;;2.53;;
53391;SDS011;41667;51.922;8.850;2023-05-10T03:33:24;7.07;;;2.47;;
53391;SDS011;41667;51.922;8.850;2023-05-10T03:35:49;3.05;;;2.50;;
53391;SDS011;41667;51.922;8.850;2023-05-10T03:38:14;2.90;;;2.55;;
53391;SDS011;41667;51.922;8.850;2023-05-10T03:40:39;3.33;;;3.00;;
53391;SDS011;41667;51.922;8.850;2023-05-10T03:43:05;3.53;;;2.78;;
53391;SDS011;41667;51.922;8.850;2023-05-10T03:45:30;4.57;;;3.70;;
53391;SDS011;41667;51.922;8.850;2023-05-10T03:47:56;5.47;;;3.88;;
53391;SDS011;41667;51.922;8.850;2023-05-10T03:50:21;6.85;;;4.57;;
53391;SDS011;41667;51.922;8.850;2023-05-10T03:52:47;6.22;;;4.25;;
53391;SDS011;41667;51.922;8.850;2023-05-10T03:55:12;4.93;;;3.80;;
53391;SDS011;41667;51.922;8.850;2023-05-10T03:57:37;6.20;;;4.13;;
53391;SDS011;41667;51.922;8.850;2023-05-10T04:00:03;7.97;;;5.57;;
53391;SDS011;41667;51.922;8.850;2023-05-10T04:02:28;8.45;;;5.05;;
53391;SDS011;41667;51.922;8.850;2023-05-10T04:04:54;8.27;;;5.05;;
53391;SDS011;41667;51.922;8.850;2023-05-10T04:07:19;8.98;;;4.88;;
53391;SDS011;41667;51.922;8.850;2023-05-10T04:09:44;6.55;;;4.47;;
53391;SDS011;41667;51.922;8.850;2023-05-10T04:12:10;8.37;;;5.77;;
53391;SDS011;41667;51.922;8.850;2023-05-10T04:14:35;7.45;;;5.65;;
53391;SDS011;41667;51.922;8.850;2023-05-10T04:17:00;7.45;;;5.40;;
53391;SDS011;41667;51.922;8.850;2023-05-10T04:19:28;8.82;;;6.13;;
53391;SDS011;41667;51.922;8.850;2023-05-10T04:21:54;8.30;;;6.20;;
53391;SDS011;41667;51.922;8.850;2023-05-10T04:24:19;8.90;;;6.72;;
53391;SDS011;41667;51.922;8.850;2023-05-10T04:26:44;10.18;;;7.72;;
53391;SDS011;41667;51.922;8.850;2023-05-10T04:29:09;7.70;;;6.05;;
53391;SDS011;41667;51.922;8.850;2023-05-10T04:31:34;10.20;;;7.35;;
53391;SDS011;41667;51.922;8.850;2023-05-10T04:34:01;9.52;;;6.47;;
53391;SDS011;41667;51.922;8.850;2023-05-10T04:36:26;9.75;;;6.68;;
53391;SDS011;41667;51.922;8.850;2023-05-10T04:38:51;8.38;;;6.50;;
53391;SDS011;41667;51.922;8.850;2023-05-10T04:41:16;8.75;;;6.20;;
53391;SDS011;41667;51.922;8.850;2023-05-10T04:43:41;7.35;;;5.80;;
53391;SDS011;41667;51.922;8.850;2023-05-10T04:46:06;10.57;;;5.28;;
53391;SDS011;41667;51.922;8.850;2023-05-10T04:48:32;3.92;;;3.22;;
53391;SDS011;41667;51.922;8.850;2023-05-10T04:50:57;5.28;;;3.10;;
53391;SDS011;41667;51.922;8.850;2023-05-10T04:53:22;3.33;;;2.93;;
53391;SDS011;41667;51.922;8.850;2023-05-10T04:55:47;3.20;;;2.70;;
53391;SDS011;41667;51.922;8.850;2023-05-10T04:58:12;2.53;;;1.70;;
53391;SDS011;41667;51.922;8.850;2023-05-10T05:00:38;1.70;;;1.48;;
53391;SDS011;41667;51.922;8.850;2023-05-10T05:03:03;4.47;;;1.60;;
53391;SDS011;41667;51.922;8.850;2023-05-10T05:05:28;2.80;;;1.60;;
53391;SDS011;41667;51.922;8.850;2023-05-10T05:07:53;2.25;;;1.95;;
53391;SDS011;41667;51.922;8.850;2023-05-10T05:10:18;1.48;;;1.38;;
53391;SDS011;41667;51.922;8.850;2023-05-10T05:12:43;1.35;;;1.25;;
53391;SDS011;41667;51.922;8.850;2023-05-10T05:15:08;1.30;;;1.20;;
53391;SDS011;41667;51.922;8.850;2023-05-10T05:17:34;2.10;;;1.20;;
53391;SDS011;41667;51.922;8.850;2023-05-10T05:19:59;0.88;;;0.82;;
53391;SDS011;41667;51.922;8.850;2023-05-10T05:22:25;1.95;;;0.80;;
53391;SDS011;41667;51.922;8.850;2023-05-10T05:24:53;0.90;;;0.90;;
53391;SDS011;41667;51.922;8.850;2023-05-10T05:27:18;1.05;;;0.90;;
53391;SDS011;41667;51.922;8.850;2023-05-10T05:29:43;0.98;;;0.93;;
53391;SDS011;41667;51.922;8.850;2023-05-10T05:32:08;0.95;;;0.80;;
53391;SDS011;41667;51.922;8.850;2023-05-10T05:34:33;1.17;;;1.07;;
53391;SDS011;41667;51.922;8.850;2023-05-10T05:36:59;0.93;;;0.93;;
53391;SDS011;41667;51.922;8.850;2023-05-10T05:39:24;0.70;;;0.70;;
53391;SDS011;41667;51.922;8.850;2023-05-10T05:41:49;1.07;;;1.07;;
53391;SDS011;41667;51.922;8.850;2023-05-10T05:44:14;0.67;;;0.63;;
53391;SDS011;41667;51.922;8.850;2023-05-10T05:46:39;1.00;;;1.00;;
53391;SDS011;41667;51.922;8.850;2023-05-10T05:49:05;0.82;;;0.70;;
53391;SDS011;41667;51.922;8.850;2023-05-10T05:51:30;1.15;;;1.05;;
53391;SDS011;41667;51.922;8.850;2023-05-10T05:53:55;1.55;;;1.30;;
53391;SDS011;41667;51.922;8.850;2023-05-10T05:56:21;1.23;;;1.17;;
53391;SDS011;41667;51.922;8.850;2023-05-10T05:58:50;1.30;;;1.20;;
53391;SDS011;41667;51.922;8.850;2023-05-10T06:01:15;1.90;;;1.40;;
53391;SDS011;41667;51.922;8.850;2023-05-10T06:03:40;1.60;;;1.50;;
53391;SDS011;41667;51.922;8.850;2023-05-10T06:06:05;1.83;;;1.73;;
53391;SDS011;41667;51.922;8.850;2023-05-10T06:08:30;2.13;;;1.92;;
53391;SDS011;41667;51.922;8.850;2023-05-10T06:10:56;1.90;;;1.70;;
53391;SDS011;41667;51.922;8.850;2023-05-10T06:13:21;2.00;;;1.80;;
53391;SDS011;41667;51.922;8.850;2023-05-10T06:15:46;2.60;;;2.27;;
53391;SDS011;41667;51.922;8.850;2023-05-10T06:18:11;2.25;;;1.83;;
53391;SDS011;41667;51.922;8.850;2023-05-10T06:20:36;2.88;;;1.63;;
53391;SDS011;41667;51.922;8.850;2023-05-10T06:23:01;1.80;;;1.70;;
53391;SDS011;41667;51.922;8.850;2023-05-10T06:25:26;2.03;;;1.63;;
53391;SDS011;41667;51.922;8.850;2023-05-10T06:27:51;1.80;;;1.60;;
53391;SDS011;41667;51.922;8.850;2023-05-10T06:30:21;2.53;;;2.30;;
53391;SDS011;41667;51.922;8.850;2023-05-10T06:32:52;2.60;;;2.05;;
53391;SDS011;41667;51.922;8.850;2023-05-10T06:35:17;2.20;;;2.00;;
53391;SDS011;41667;51.922;8.850;2023-05-10T06:37:42;3.70;;;1.80;;
53391;SDS011;41667;51.922;8.850;2023-05-10T06:40:07;2.60;;;1.85;;
53391;SDS011;41667;51.922;8.850;2023-05-10T06:42:32;2.00;;;1.77;;
53391;SDS011;41667;51.922;8.850;2023-05-10T06:44:57;2.05;;;1.88;;
53391;SDS011;41667;51.922;8.850;2023-05-10T06:47:23;2.08;;;1.88;;
53391;SDS011;41667;51.922;8.850;2023-05-10T06:49:48;2.50;;;2.30;;
53391;SDS011;41667;51.922;8.850;2023-05-10T06:52:13;1.55;;;1.40;;
53391;SDS011;41667;51.922;8.850;2023-05-10T06:54:38;2.60;;;1.67;;
53391;SDS011;41667;51.922;8.850;2023-05-10T06:57:03;1.85;;;1.40;;
53391;SDS011;41667;51.922;8.850;2023-05-10T06:59:29;2.38;;;1.73;;
53391;SDS011;41667;51.922;8.850;2023-05-10T07:01:54;2.97;;;1.80;;
53391;SDS011;41667;51.922;8.850;2023-05-10T07:04:19;1.90;;;1.70;;
53391;SDS011;41667;51.922;8.850;2023-05-10T07:06:44;2.10;;;2.00;;
53391;SDS011;41667;51.922;8.850;2023-05-10T07:09:11;2.70;;;1.85;;
53391;SDS011;41667;51.922;8.850;2023-05-10T07:11:36;6.65;;;2.20;;
53391;SDS011;41667;51.922;8.850;2023-05-10T07:14:02;3.92;;;2.20;;
53391;SDS011;41667;51.922;8.850;2023-05-10T07:16:27;2.40;;;2.20;;
53391;SDS011;41667;51.922;8.850;2023-05-10T07:18:52;2.67;;;2.20;;
53391;SDS011;41667;51.922;8.850;2023-05-10T07:21:18;3.85;;;2.10;;
53391;SDS011;41667;51.922;8.850;2023-05-10T07:23:43;2.22;;;2.05;;
53391;SDS011;41667;51.922;8.850;2023-05-10T07:26:08;4.05;;;2.42;;
53391;SDS011;41667;51.922;8.850;2023-05-10T07:28:34;2.38;;;2.17;;
53391;SDS011;41667;51.922;8.850;2023-05-10T07:31:02;2.10;;;1.65;;
53391;SDS011;41667;51.922;8.850;2023-05-10T07:33:27;5.18;;;2.38;;
53391;SDS011;41667;51.922;8.850;2023-05-10T07:35:52;2.28;;;1.98;;
53391;SDS011;41667;51.922;8.850;2023-05-10T07:38:17;5.40;;;2.33;;
53391;SDS011;41667;51.922;8.850;2023-05-10T07:40:42;2.47;;;2.28;;
53391;SDS011;41667;51.922;8.850;2023-05-10T07:43:07;4.63;;;2.20;;
53391;SDS011;41667;51.922;8.850;2023-05-10T07:45:33;4.07;;;2.40;;
53391;SDS011;41667;51.922;8.850;2023-05-10T07:47:58;2.47;;;2.28;;
53391;SDS011;41667;51.922;8.850;2023-05-10T07:50:23;3.73;;;2.33;;
53391;SDS011;41667;51.922;8.850;2023-05-10T07:52:48;4.33;;;2.43;;
53391;SDS011;41667;51.922;8.850;2023-05-10T07:55:13;6.77;;;2.97;;
53391;SDS011;41667;51.922;8.850;2023-05-10T07:57:39;5.03;;;2.88;;
53391;SDS011;41667;51.922;8.850;2023-05-10T08:00:05;3.25;;;2.92;;
53391;SDS011;41667;51.922;8.850;2023-05-10T08:02:30;4.85;;;3.50;;
53391;SDS011;41667;51.922;8.850;2023-05-10T08:04:55;3.80;;;3.00;;
53391;SDS011;41667;51.922;8.850;2023-05-10T08:07:20;3.63;;;2.90;;
53391;SDS011;41667;51.922;8.850;2023-05-10T08:09:46;3.85;;;2.80;;
53391;SDS011;41667;51.922;8.850;2023-05-10T08:12:11;7.03;;;3.88;;
53391;SDS011;41667;51.922;8.850;2023-05-10T08:14:36;5.97;;;4.05;;
53391;SDS011;41667;51.922;8.850;2023-05-10T08:17:01;7.68;;;4.35;;
53391;SDS011;41667;51.922;8.850;2023-05-10T08:19:27;6.53;;;3.80;;
53391;SDS011;41667;51.922;8.850;2023-05-10T08:21:52;10.95;;;3.85;;
53391;SDS011;41667;51.922;8.850;2023-05-10T08:24:18;7.03;;;4.53;;
53391;SDS011;41667;51.922;8.850;2023-05-10T08:26:43;9.00;;;4.65;;
53391;SDS011;41667;51.922;8.850;2023-05-10T08:29:08;7.57;;;4.73;;
53391;SDS011;41667;51.922;8.850;2023-05-10T08:31:33;10.05;;;4.88;;
53391;SDS011;41667;51.922;8.850;2023-05-10T08:33:59;10.48;;;5.55;;
53391;SDS011;41667;51.922;8.850;2023-05-10T08:36:25;10.15;;;5.28;;
53391;SDS011;41667;51.922;8.850;2023-05-10T08:38:51;13.07;;;5.03;;
53391;SDS011;41667;51.922;8.850;2023-05-10T08:41:18;10.60;;;6.00;;
53391;SDS011;41667;51.922;8.850;2023-05-10T08:43:43;12.98;;;5.72;;
53391;SDS011;41667;51.922;8.850;2023-05-10T08:46:11;10.90;;;5.72;;
53391;SDS011;41667;51.922;8.850;2023-05-10T08:48:37;8.52;;;5.13;;
53391;SDS011;41667;51.922;8.850;2023-05-10T08:51:03;12.80;;;6.38;;
53391;SDS011;41667;51.922;8.850;2023-05-10T08:53:29;16.25;;;6.53;;
53391;SDS011;41667;51.922;8.850;2023-05-10T08:55:55;10.73;;;6.20;;
53391;SDS011;41667;51.922;8.850;2023-05-10T08:58:21;14.77;;;5.68;;
53391;SDS011;41667;51.922;8.850;2023-05-10T09:00:49;12.57;;;6.45;;
53391;SDS011;41667;51.922;8.850;2023-05-10T09:03:15;15.77;;;7.38;;
53391;SDS011;41667;51.922;8.850;2023-05-10T09:05:41;13.30;;;6.25;;
53391;SDS011;41667;51.922;8.850;2023-05-10T09:08:07;10.68;;;6.55;;
53391;SDS011;41667;51.922;8.850;2023-05-10T09:10:33;17.58;;;7.50;;
53391;SDS011;41667;51.922;8.850;2023-05-10T09:12:58;14.88;;;7.75;;
53391;SDS011;41667;51.922;8.850;2023-05-10T09:15:24;14.18;;;7.22;;
53391;SDS011;41667;51.922;8.850;2023-05-10T09:17:49;11.10;;;5.57;;
53391;SDS011;41667;51.922;8.850;2023-05-10T09:20:14;8.70;;;6.15;;
53391;SDS011;41667;51.922;8.850;2023-05-10T09:22:40;11.50;;;6.22;;
53391;SDS011;41667;51.922;8.850;2023-05-10T09:25:09;12.02;;;7.30;;
53391;SDS011;41667;51.922;8.850;2023-05-10T09:27:35;12.57;;;6.63;;
53391;SDS011;41667;51.922;8.850;2023-05-10T09:30:01;10.90;;;6.47;;
53391;SDS011;41667;51.922;8.850;2023-05-10T09:32:36;10.45;;;6.28;;
53391;SDS011;41667;51.922;8.850;2023-05-10T09:37:33;13.18;;;7.07;;
53391;SDS011;41667;51.922;8.850;2023-05-10T09:39:58;11.43;;;6.90;;
53391;SDS011;41667;51.922;8.850;2023-05-10T09:42:23;12.77;;;6.97;;
53391;SDS011;41667;51.922;8.850;2023-05-10T09:44:49;13.38;;;7.72;;
53391;SDS011;41667;51.922;8.850;2023-05-10T09:47:17;11.45;;;6.50;;
53391;SDS011;41667;51.922;8.850;2023-05-10T09:49:42;13.13;;;7.00;;
53391;SDS011;41667;51.922;8.850;2023-05-10T09:52:08;11.55;;;6.60;;
53391;SDS011;41667;51.922;8.850;2023-05-10T09:54:33;15.83;;;7.03;;
53391;SDS011;41667;51.922;8.850;2023-05-10T09:56:59;12.00;;;7.35;;
53391;SDS011;41667;51.922;8.850;2023-05-10T09:59:25;12.82;;;6.35;;
53391;SDS011;41667;51.922;8.850;2023-05-10T10:01:51;12.13;;;7.45;;
53391;SDS011;41667;51.922;8.850;2023-05-10T10:04:16;11.57;;;6.22;;
53391;SDS011;41667;51.922;8.850;2023-05-10T10:06:41;13.38;;;7.68;;
53391;SDS011;41667;51.922;8.850;2023-05-10T10:09:07;15.27;;;8.13;;
53391;SDS011;41667;51.922;8.850;2023-05-10T10:11:36;13.63;;;7.75;;
53391;SDS011;41667;51.922;8.850;2023-05-10T10:14:02;14.20;;;8.15;;
53391;SDS011;41667;51.922;8.850;2023-05-10T10:16:28;18.02;;;8.88;;
53391;SDS011;41667;51.922;8.850;2023-05-10T10:18:54;14.68;;;7.13;;
53391;SDS011;41667;51.922;8.850;2023-05-10T10:21:19;13.32;;;7.85;;
53391;SDS011;41667;51.922;8.850;2023-05-10T10:23:44;14.00;;;8.80;;
53391;SDS011;41667;51.922;8.850;2023-05-10T10:26:10;17.75;;;7.75;;
53391;SDS011;41667;51.922;8.850;2023-05-10T10:28:51;13.95;;;8.25;;
53391;SDS011;41667;51.922;8.850;2023-05-10T10:33:51;17.55;;;9.00;;
53391;SDS011;41667;51.922;8.850;2023-05-10T10:36:20;13.68;;;8.73;;
53391;SDS011;41667;51.922;8.850;2023-05-10T10:41:11;16.45;;;8.95;;
53391;SDS011;41667;51.922;8.850;2023-05-10T10:44:13;17.60;;;9.35;;
53391;SDS011;41667;51.922;8.850;2023-05-10T10:46:46;15.50;;;9.38;;
53391;SDS011;41667;51.922;8.850;2023-05-10T10:49:21;17.05;;;9.50;;
53391;SDS011;41667;51.922;8.850;2023-05-10T10:54:31;14.50;;;8.98;;
53391;SDS011;41667;51.922;8.850;2023-05-10T10:57:09;14.23;;;9.15;;
53391;SDS011;41667;51.922;8.850;2023-05-10T10:59:35;12.32;;;8.27;;
53391;SDS011;41667;51.922;8.850;2023-05-10T11:02:00;12.13;;;7.60;;
53391;SDS011;41667;51.922;8.850;2023-05-10T11:04:25;14.38;;;8.70;;
53391;SDS011;41667;51.922;8.850;2023-05-10T11:06:51;10.45;;;7.07;;
53391;SDS011;41667;51.922;8.850;2023-05-10T11:09:39;11.07;;;7.22;;
53391;SDS011;41667;51.922;8.850;2023-05-10T11:12:07;10.40;;;7.05;;
53391;SDS011;41667;51.922;8.850;2023-05-10T11:14:32;10.35;;;6.70;;
53391;SDS011;41667;51.922;8.850;2023-05-10T11:16:58;10.98;;;6.70;;
53391;SDS011;41667;51.922;8.850;2023-05-10T11:19:23;9.93;;;6.72;;
53391;SDS011;41667;51.922;8.850;2023-05-10T11:22:11;9.93;;;6.28;;
53391;SDS011;41667;51.922;8.850;2023-05-10T11:24:37;11.75;;;6.28;;
53391;SDS011;41667;51.922;8.850;2023-05-10T11:27:03;11.47;;;6.17;;
53391;SDS011;41667;51.922;8.850;2023-05-10T11:29:28;7.88;;;5.53;;
53391;SDS011;41667;51.922;8.850;2023-05-10T11:31:56;8.00;;;5.23;;
53391;SDS011;41667;51.922;8.850;2023-05-10T11:34:25;6.93;;;4.28;;
53391;SDS011;41667;51.922;8.850;2023-05-10T11:36:51;6.15;;;4.28;;
53391;SDS011;41667;51.922;8.850;2023-05-10T11:39:16;8.60;;;4.80;;
53391;SDS011;41667;51.922;8.850;2023-05-10T11:41:41;7.40;;;4.65;;
53391;SDS011;41667;51.922;8.850;2023-05-10T11:44:07;7.18;;;4.40;;
53391;SDS011;41667;51.922;8.850;2023-05-10T11:46:33;6.90;;;4.15;;
53391;SDS011;41667;51.922;8.850;2023-05-10T11:48:59;6.85;;;4.45;;
53391;SDS011;41667;51.922;8.850;2023-05-10T11:51:26;9.63;;;5.13;;
53391;SDS011;41667;51.922;8.850;2023-05-10T11:53:55;6.47;;;4.83;;
53391;SDS011;41667;51.922;8.850;2023-05-10T11:56:20;7.00;;;4.80;;
53391;SDS011;41667;51.922;8.850;2023-05-10T11:58:51;9.45;;;5.68;;
53391;SDS011;41667;51.922;8.850;2023-05-10T12:01:16;7.47;;;5.25;;
53391;SDS011;41667;51.922;8.850;2023-05-10T12:03:41;8.63;;;4.65;;
53391;SDS011;41667;51.922;8.850;2023-05-10T12:06:07;8.80;;;4.60;;
53391;SDS011;41667;51.922;8.850;2023-05-10T12:08:32;7.00;;;4.43;;
53391;SDS011;41667;51.922;8.850;2023-05-10T12:11:04;7.22;;;4.90;;
53391;SDS011;41667;51.922;8.850;2023-05-10T12:13:30;10.80;;;4.93;;
53391;SDS011;41667;51.922;8.850;2023-05-10T12:15:58;7.85;;;4.50;;
53391;SDS011;41667;51.922;8.850;2023-05-10T12:18:23;8.23;;;4.38;;
53391;SDS011;41667;51.922;8.850;2023-05-10T12:20:51;6.55;;;4.25;;
53391;SDS011;41667;51.922;8.850;2023-05-10T12:23:16;8.55;;;4.78;;
53391;SDS011;41667;51.922;8.850;2023-05-10T12:25:41;7.88;;;4.70;;
53391;SDS011;41667;51.922;8.850;2023-05-10T12:28:07;11.23;;;5.75;;
53391;SDS011;41667;51.922;8.850;2023-05-10T12:30:33;10.52;;;5.28;;
53391;SDS011;41667;51.922;8.850;2023-05-10T12:32:59;8.07;;;5.20;;
53391;SDS011;41667;51.922;8.850;2023-05-10T12:35:25;8.65;;;5.13;;
53391;SDS011;41667;51.922;8.850;2023-05-10T12:37:51;5.57;;;3.95;;
53391;SDS011;41667;51.922;8.850;2023-05-10T12:40:16;7.50;;;3.70;;
53391;SDS011;41667;51.922;8.850;2023-05-10T12:42:41;4.35;;;2.90;;
53391;SDS011;41667;51.922;8.850;2023-05-10T12:45:07;5.53;;;3.78;;
53391;SDS011;41667;51.922;8.850;2023-05-10T12:47:32;4.70;;;3.40;;
53391;SDS011;41667;51.922;8.850;2023-05-10T12:49:58;6.28;;;3.40;;
53391;SDS011;41667;51.922;8.850;2023-05-10T12:52:23;3.88;;;2.33;;
53391;SDS011;41667;51.922;8.850;2023-05-10T12:54:49;6.88;;;3.13;;
53391;SDS011;41667;51.922;8.850;2023-05-10T12:57:14;2.33;;;2.13;;
53391;SDS011;41667;51.922;8.850;2023-05-10T12:59:39;5.05;;;2.83;;
53391;SDS011;41667;51.922;8.850;2023-05-10T13:02:05;6.18;;;3.90;;
53391;SDS011;41667;51.922;8.850;2023-05-10T13:04:30;8.98;;;4.28;;
53391;SDS011;41667;51.922;8.850;2023-05-10T13:06:55;10.13;;;5.30;;
53391;SDS011;41667;51.922;8.850;2023-05-10T13:09:23;8.68;;;5.53;;
53391;SDS011;41667;51.922;8.850;2023-05-10T13:11:48;9.75;;;5.68;;
53391;SDS011;41667;51.922;8.850;2023-05-10T13:14:14;8.80;;;5.73;;
53391;SDS011;41667;51.922;8.850;2023-05-10T13:16:39;9.85;;;5.93;;
53391;SDS011;41667;51.922;8.850;2023-05-10T13:19:04;9.55;;;5.43;;
53391;SDS011;41667;51.922;8.850;2023-05-10T13:21:29;8.82;;;5.32;;
53391;SDS011;41667;51.922;8.850;2023-05-10T13:23:55;15.27;;;6.68;;
53391;SDS011;41667;51.922;8.850;2023-05-10T13:26:20;10.67;;;5.33;;
53391;SDS011;41667;51.922;8.850;2023-05-10T13:28:46;10.85;;;4.72;;
53391;SDS011;41667;51.922;8.850;2023-05-10T13:31:11;9.37;;;4.47;;
53391;SDS011;41667;51.922;8.850;2023-05-10T13:33:37;8.32;;;5.38;;
53391;SDS011;41667;51.922;8.850;2023-05-10T13:36:03;7.45;;;5.05;;
53391;SDS011;41667;51.922;8.850;2023-05-10T13:38:28;9.10;;;4.75;;
53391;SDS011;41667;51.922;8.850;2023-05-10T13:40:53;7.20;;;4.35;;
53391;SDS011;41667;51.922;8.850;2023-05-10T13:43:18;6.50;;;4.63;;
53391;SDS011;41667;51.922;8.850;2023-05-10T13:45:44;7.60;;;4.25;;
53391;SDS011;41667;51.922;8.850;2023-05-10T13:48:09;6.77;;;4.80;;
53391;SDS011;41667;51.922;8.850;2023-05-10T13:50:34;6.07;;;4.35;;
53391;SDS011;41667;51.922;8.850;2023-05-10T13:52:59;5.55;;;3.65;;
53391;SDS011;41667;51.922;8.850;2023-05-10T13:55:24;5.93;;;3.70;;
53391;SDS011;41667;51.922;8.850;2023-05-10T13:57:49;7.20;;;4.28;;
53391;SDS011;41667;51.922;8.850;2023-05-10T14:00:15;7.90;;;4.10;;
53391;SDS011;41667;51.922;8.850;2023-05-10T14:02:41;4.38;;;3.47;;
53391;SDS011;41667;51.922;8.850;2023-05-10T14:05:06;7.30;;;3.85;;
53391;SDS011;41667;51.922;8.850;2023-05-10T14:07:31;3.53;;;2.90;;
53391;SDS011;41667;51.922;8.850;2023-05-10T14:09:56;3.15;;;2.38;;
53391;SDS011;41667;51.922;8.850;2023-05-10T14:12:21;6.00;;;2.92;;
53391;SDS011;41667;51.922;8.850;2023-05-10T14:14:46;4.97;;;3.25;;
53391;SDS011;41667;51.922;8.850;2023-05-10T14:17:12;5.57;;;3.07;;
53391;SDS011;41667;51.922;8.850;2023-05-10T14:19:37;5.83;;;2.70;;
53391;SDS011;41667;51.922;8.850;2023-05-10T14:22:02;6.95;;;4.63;;
53391;SDS011;41667;51.922;8.850;2023-05-10T14:24:27;9.00;;;5.03;;
53391;SDS011;41667;51.922;8.850;2023-05-10T14:26:52;7.50;;;3.92;;
53391;SDS011;41667;51.922;8.850;2023-05-10T14:29:19;6.03;;;3.13;;
53391;SDS011;41667;51.922;8.850;2023-05-10T14:31:44;2.88;;;1.80;;
53391;SDS011;41667;51.922;8.850;2023-05-10T14:34:09;2.03;;;1.38;;
53391;SDS011;41667;51.922;8.850;2023-05-10T14:36:34;4.33;;;1.30;;
53391;SDS011;41667;51.922;8.850;2023-05-10T14:38:59;1.52;;;1.00;;
53391;SDS011;41667;51.922;8.850;2023-05-10T14:41:25;1.40;;;1.30;;
53391;SDS011;41667;51.922;8.850;2023-05-10T14:43:50;1.98;;;1.58;;
53391;SDS011;41667;51.922;8.850;2023-05-10T14:46:15;1.48;;;1.38;;
53391;SDS011;41667;51.922;8.850;2023-05-10T14:48:40;1.13;;;1.00;;
53391;SDS011;41667;51.922;8.850;2023-05-10T14:51:05;1.65;;;1.33;;
53391;SDS011;41667;51.922;8.850;2023-05-10T14:53:31;1.33;;;1.23;;
53391;SDS011;41667;51.922;8.850;2023-05-10T14:55:57;2.10;;;1.30;;
53391;SDS011;41667;51.922;8.850;2023-05-10T14:58:22;1.60;;;1.50;;